Time;durP1;ratioP1;P1;durP2;ratioP2;P2;SDS_P1;SDS_P2;PMS_P1;PMS_P2;Temp;Humidity;BMP_temperature;BMP_pressure;BME280_temperature;BME280_humidity;BME280_pressure;Samples;Min_cycle;Max_cycle;Signal;HPM_P1;HPM_P2
2022/09/29 09:24:49;;;;;;;17.47;3.47;;;;;;;20.28;nan;101318.63;6220132;22;20427;-84
2022/09/29 09:31:33;;;;;;;16.83;2.80;;;;;;;20.27;nan;101325.28;6038010;23;20527;-84
2022/09/29 09:34:24;;;;;;;17.10;3.13;;;;;;;20.32;nan;101319.00;6045112;22;20507;-84
2022/09/29 09:40:56;;;;;;;17.60;3.20;;;;;;;20.53;nan;101303.66;6237871;23;20394;-85
2022/09/29 09:43:32;;;;;;;20.77;3.13;;;;;;;20.73;nan;101308.78;6220363;23;20418;-84
2022/09/29 09:46:22;;;;;;;29.27;3.23;;;;;;;20.82;nan;101340.63;6219850;23;20904;-85
2022/09/29 09:49:06;;;;;;;19.17;3.47;;;;;;;20.83;nan;101320.06;6245670;22;20473;-85
2022/09/29 09:51:55;;;;;;;17.20;3.23;;;;;;;21.01;nan;101309.59;6197966;22;20551;-82
2022/09/29 09:54:30;;;;;;;16.27;3.70;;;;;;;21.14;nan;101321.53;6213188;23;20856;-84
2022/09/29 09:57:34;;;;;;;18.93;5.00;;;;;;;21.22;nan;101330.31;6215403;23;20444;-84
2022/09/29 10:00:02;;;;;;;15.70;3.40;;;;;;;21.23;nan;101312.53;6212922;23;20414;-84
2022/09/29 10:02:29;;;;;;;19.40;3.40;;;;;;;21.24;nan;101324.50;6213412;23;20467;-85
2022/09/29 10:04:57;;;;;;;16.57;2.93;;;;;;;21.24;nan;101317.00;6189133;23;20474;-83
2022/09/29 10:07:27;;;;;;;23.47;3.43;;;;;;;21.43;nan;101325.13;6189532;23;20495;-84
2022/09/29 10:09:55;;;;;;;15.23;3.10;;;;;;;21.47;nan;101315.19;6213936;23;20415;-84
2022/09/29 10:12:23;;;;;;;21.07;3.20;;;;;;;21.54;nan;101307.53;6189146;23;20906;-84
2022/09/29 10:15:39;;;;;;;20.03;2.87;;;;;;;21.68;nan;101311.66;6188996;23;20913;-84
2022/09/29 10:18:18;;;;;;;15.30;3.07;;;;;;;21.88;nan;101311.97;6200891;23;20418;-84
2022/09/29 10:20:46;;;;;;;22.27;3.40;;;;;;;21.93;nan;101317.63;6214142;23;20411;-85
2022/09/29 10:23:29;;;;;;;19.03;3.23;;;;;;;22.05;nan;101318.38;6213780;23;20438;-84
2022/09/29 10:26:08;;;;;;;16.77;3.03;;;;;;;22.04;nan;101310.28;6212934;23;20415;-84
2022/09/29 10:29:23;;;;;;;16.10;2.70;;;;;;;22.12;nan;101315.44;6167378;23;20404;-84
2022/09/29 10:32:11;;;;;;;24.20;3.63;;;;;;;22.24;nan;101312.50;6213510;23;20408;-84
2022/09/29 10:34:40;;;;;;;19.03;3.50;;;;;;;22.33;nan;101305.38;6194312;23;20407;-84
2022/09/29 10:37:27;;;;;;;12.90;2.60;;;;;;;22.54;nan;101310.13;6213713;23;20501;-85
2022/09/29 10:40:09;;;;;;;22.27;3.90;;;;;;;22.62;nan;101298.53;6189851;23;20411;-85
2022/09/29 10:42:38;;;;;;;18.27;4.90;;;;;;;22.64;nan;101299.13;6214830;23;20419;-84
2022/09/29 10:45:29;;;;;;;18.70;2.97;;;;;;;22.74;nan;101304.78;6213562;23;20419;-84
2022/09/29 10:47:56;;;;;;;18.67;2.70;;;;;;;22.86;nan;101298.28;6213463;23;20403;-87
2022/09/29 10:50:32;;;;;;;22.57;3.77;;;;;;;22.84;nan;101309.69;6213697;23;20475;-85
2022/09/29 10:53:16;;;;;;;29.17;3.33;;;;;;;22.85;nan;101291.03;6189286;23;20435;-84
2022/09/29 10:55:51;;;;;;;24.43;3.93;;;;;;;22.89;nan;101294.97;6213570;23;20474;-84
2022/09/29 10:58:33;;;;;;;19.70;3.30;;;;;;;22.98;nan;101299.81;6188418;23;20737;-84
2022/09/29 11:01:20;;;;;;;11.73;3.20;;;;;;;23.17;nan;101297.47;6192236;23;20412;-85
2022/09/29 11:04:00;;;;;;;23.47;3.63;;;;;;;23.34;nan;101297.34;6213415;23;20395;-84
2022/09/29 11:06:32;;;;;;;21.93;3.77;;;;;;;23.38;nan;101293.78;6190719;23;20415;-85
2022/09/29 11:09:01;;;;;;;19.47;3.20;;;;;;;23.38;nan;101290.16;6213889;23;20414;-84
2022/09/29 11:11:30;;;;;;;16.37;4.33;;;;;;;23.49;nan;101311.44;6213734;23;20818;-84
2022/09/29 11:13:58;;;;;;;15.80;3.10;;;;;;;23.56;nan;101311.25;6213073;23;20738;-84
2022/09/29 11:16:30;;;;;;;20.27;3.70;;;;;;;23.66;nan;101306.63;6189954;23;20956;-84
2022/09/29 11:19:01;;;;;;;21.27;3.33;;;;;;;23.78;nan;101303.63;6100706;23;20441;-86
2022/09/29 11:21:41;;;;;;;20.43;2.60;;;;;;;23.96;nan;101294.81;6125220;23;20498;-86
2022/09/29 11:24:36;;;;;;;13.50;2.43;;;;;;;24.00;nan;101295.13;6124917;23;20590;-85
2022/09/29 11:27:06;;;;;;;15.23;2.87;;;;;;;23.96;nan;101296.75;6125053;23;20537;-84
2022/09/29 11:29:40;;;;;;;16.73;3.00;;;;;;;24.04;nan;101302.69;6124086;23;20514;-84
2022/09/29 11:32:29;;;;;;;19.07;3.23;;;;;;;24.03;nan;101294.59;6077114;23;20940;-82
2022/09/29 11:35:16;;;;;;;14.33;3.70;;;;;;;24.13;nan;101300.22;6101519;23;20406;-83
2022/09/29 11:37:56;;;;;;;24.33;3.43;;;;;;;24.12;nan;101295.75;6184726;23;20446;-83
2022/09/29 11:41:09;;;;;;;19.30;3.50;;;;;;;24.29;nan;101281.59;6215517;23;21044;-83
2022/09/29 11:43:50;;;;;;;21.30;3.17;;;;;;;24.38;nan;101280.00;6187128;23;20490;-82
2022/09/29 11:46:30;;;;;;;18.70;2.70;;;;;;;24.57;nan;101277.56;6214762;23;20407;-82
2022/09/29 11:49:33;;;;;;;15.97;2.50;;;;;;;24.75;nan;101268.66;6190500;23;20811;-83
2022/09/29 11:52:10;;;;;;;13.30;3.13;;;;;;;24.89;nan;101281.00;6216675;23;20928;-83
2022/09/29 11:55:02;;;;;;;18.20;3.40;;;;;;;24.72;nan;101267.25;6215016;23;20794;-83
2022/09/29 11:57:43;;;;;;;13.80;2.57;;;;;;;24.49;nan;101264.09;6216696;23;20443;-83
2022/09/29 12:00:13;;;;;;;16.27;2.60;;;;;;;24.48;nan;101271.63;6192355;23;20790;-83
2022/09/29 12:03:04;;;;;;;11.50;2.30;;;;;;;24.72;nan;101272.84;6214349;23;21161;-82
2022/09/29 12:05:51;;;;;;;14.57;2.37;;;;;;;24.79;nan;101262.25;6216605;23;20478;-84
2022/09/29 12:08:46;;;;;;;12.37;2.37;;;;;;;24.94;nan;101274.56;6190613;23;20407;-83
2022/09/29 12:11:21;;;;;;;17.87;3.57;;;;;;;25.18;nan;101267.38;6214893;23;20495;-82
2022/09/29 12:14:20;;;;;;;19.63;3.50;;;;;;;25.50;nan;101257.84;6196015;23;20428;-83
2022/09/29 12:16:56;;;;;;;21.13;3.27;;;;;;;25.86;nan;101250.28;6216993;23;20447;-84
2022/09/29 12:19:44;;;;;;;16.90;3.33;;;;;;;25.87;nan;101236.00;6190302;23;20415;-84
2022/09/29 12:22:21;;;;;;;16.87;2.67;;;;;;;25.85;nan;101273.81;6195494;23;20925;-84
2022/09/29 12:24:56;;;;;;;24.30;3.30;;;;;;;25.71;nan;101245.56;6166185;23;20519;-82
2022/09/29 12:27:25;;;;;;;14.80;3.30;;;;;;;25.60;nan;101241.03;6214302;23;20410;-83
2022/09/29 12:30:04;;;;;;;17.60;3.03;;;;;;;25.71;nan;101225.94;6190071;23;20408;-84
2022/09/29 12:32:57;;;;;;;14.97;3.17;;;;;;;25.82;nan;101230.38;6214281;23;20411;-83
2022/09/29 12:35:33;;;;;;;30.70;3.70;;;;;;;25.88;nan;101226.47;6215341;23;20850;-84
2022/09/29 12:38:25;;;;;;;20.10;2.80;;;;;;;25.92;nan;101240.75;6216349;23;20521;-87
2022/09/29 12:41:26;;;;;;;19.13;2.50;;;;;;;25.79;nan;101233.75;6167133;23;20494;-86
2022/09/29 12:44:04;;;;;;;27.47;3.60;;;;;;;25.60;nan;101229.84;6191179;23;20419;-86
2022/09/29 12:46:38;;;;;;;18.60;3.17;;;;;;;25.51;nan;101217.53;6189652;23;20421;-87
2022/09/29 12:49:30;;;;;;;16.43;3.10;;;;;;;25.38;nan;101221.78;6215408;23;20415;-86
2022/09/29 12:51:58;;;;;;;21.40;3.23;;;;;;;25.32;nan;101212.53;6190072;23;20439;-86
2022/09/29 12:55:18;;;;;;;14.97;2.80;;;;;;;25.39;nan;101196.31;6200017;23;20507;-88
2022/09/29 12:57:47;;;;;;;17.60;3.47;;;;;;;25.33;nan;101200.22;6166552;23;20952;-87
2022/09/29 13:12:58;;;;;;;;;;;;;;;;;;;;;
2022/09/29 14:06:16;;;;;;;2.20;0.63;;;;;;;23.90;nan;101117.16;6048927;23;20545;-88
2022/09/29 14:09:31;;;;;;;3.90;0.97;;;;;;;23.79;nan;101126.63;6213707;23;20411;-88
2022/09/29 14:12:26;;;;;;;6.60;1.10;;;;;;;23.74;nan;101126.59;6167614;23;20417;-86
2022/09/29 14:20:04;;;;;;;3.00;0.70;;;;;;;23.80;nan;101111.56;6124713;23;20425;-87
2022/09/29 14:23:24;;;;;;;3.53;0.83;;;;;;;24.04;nan;101112.78;6101707;23;20429;-87
2022/09/29 14:27:00;;;;;;;5.00;1.20;;;;;;;24.22;nan;101124.56;6081320;23;20433;-88
2022/09/29 14:30:49;;;;;;;7.40;1.60;;;;;;;24.13;nan;101101.06;6104822;23;20405;-87
2022/09/29 14:33:55;;;;;;;5.33;1.00;;;;;;;24.24;nan;101100.84;6098758;23;20397;-88
2022/09/29 14:56:00;;;;;;;8.03;1.37;;;;;;;23.97;nan;101087.06;6129311;23;20744;-87
2022/09/29 14:58:57;;;;;;;8.67;1.00;;;;;;;23.68;nan;101083.03;6143057;23;20951;-88
2022/09/29 15:01:31;;;;;;;10.43;2.90;;;;;;;23.57;nan;101100.84;6133174;23;20485;-87
2022/09/29 15:04:07;;;;;;;12.70;1.67;;;;;;;23.50;nan;101083.47;6127505;23;20796;-88
2022/09/29 15:06:46;;;;;;;10.40;1.40;;;;;;;23.56;nan;101079.63;6136711;23;20420;-87
2022/09/29 15:09:18;;;;;;;7.43;1.47;;;;;;;23.69;nan;101076.31;6188978;23;20427;-87
2022/09/29 15:11:51;;;;;;;12.10;1.57;;;;;;;24.00;nan;101058.59;6165879;23;20415;-87
2022/09/29 15:14:27;;;;;;;17.93;2.20;;;;;;;24.40;nan;101048.63;6165460;23;20411;-88
2022/09/29 15:16:56;;;;;;;12.80;1.57;;;;;;;24.67;nan;101056.72;6188936;23;20945;-87
2022/09/29 15:19:49;;;;;;;12.60;2.37;;;;;;;24.61;nan;101067.06;6215300;23;20423;-87
2022/09/29 15:22:40;;;;;;;16.43;2.70;;;;;;;24.44;nan;101055.31;6214705;23;20412;-87
2022/09/29 15:25:30;;;;;;;10.23;1.90;;;;;;;24.23;nan;101064.78;6214584;23;20449;-87
2022/09/29 15:28:17;;;;;;;7.97;1.60;;;;;;;23.88;nan;101054.34;6214216;23;20703;-87
2022/09/29 15:30:47;;;;;;;14.40;1.53;;;;;;;23.58;nan;101069.03;6213734;23;20406;-87
2022/09/29 15:33:23;;;;;;;7.13;2.10;;;;;;;23.38;nan;101055.78;6213739;23;20411;-87
2022/09/29 15:35:56;;;;;;;8.20;1.20;;;;;;;23.22;nan;101054.88;6189519;23;20411;-87
2022/09/29 15:38:24;;;;;;;7.90;1.10;;;;;;;23.16;nan;101055.09;6189211;23;20781;-87
2022/09/29 15:40:57;;;;;;;8.20;1.20;;;;;;;23.08;nan;101039.75;6214601;23;20490;-87
2022/09/29 15:43:28;;;;;;;7.27;1.20;;;;;;;23.08;nan;101048.09;6190023;23;20485;-87
2022/09/29 15:46:04;;;;;;;7.37;0.97;;;;;;;23.20;nan;101042.31;6214023;23;20411;-87
2022/09/29 15:48:33;;;;;;;12.63;1.70;;;;;;;23.35;nan;101020.91;6189208;23;20448;-87
2022/09/29 15:51:00;;;;;;;7.80;1.37;;;;;;;23.63;nan;101027.19;6189151;23;20886;-88
2022/09/29 15:53:29;;;;;;;9.03;1.87;;;;;;;23.68;nan;101027.19;6189390;23;20408;-87
2022/09/29 15:55:58;;;;;;;12.30;2.53;;;;;;;23.66;nan;101033.09;6165030;23;21141;-87
2022/09/29 15:58:26;;;;;;;10.03;1.37;;;;;;;23.63;nan;101036.41;6164802;23;20972;-86
2022/09/29 16:00:57;;;;;;;11.33;2.13;;;;;;;23.59;nan;101026.06;6213789;23;20411;-87
2022/09/29 16:03:39;;;;;;;11.40;1.30;;;;;;;23.58;nan;101032.75;6191421;23;20410;-86
2022/09/29 16:06:38;;;;;;;16.77;2.63;;;;;;;23.53;nan;101019.63;6215259;23;20442;-87
2022/09/29 16:09:14;;;;;;;10.03;2.90;;;;;;;23.69;nan;101009.34;6220354;23;20416;-88
2022/09/29 16:11:44;;;;;;;13.23;2.93;;;;;;;23.86;nan;101015.53;6192071;23;20479;-87
2022/09/29 16:14:23;;;;;;;13.20;2.20;;;;;;;24.10;nan;101016.69;6216174;23;20411;-88
2022/09/29 16:16:53;;;;;;;5.83;1.57;;;;;;;24.16;nan;101011.13;6191197;23;20535;-87
2022/09/29 16:19:29;;;;;;;14.30;1.60;;;;;;;24.22;nan;101004.44;6191399;23;20491;-87
2022/09/29 16:22:02;;;;;;;12.20;2.27;;;;;;;24.34;nan;100999.44;6191872;23;20415;-88
2022/09/29 16:24:38;;;;;;;13.13;2.50;;;;;;;24.32;nan;100990.47;6190944;23;20415;-87
2022/09/29 16:27:56;;;;;;;20.93;5.93;;;;;;;24.14;nan;100988.22;6191528;23;20434;-87
2022/09/29 16:30:29;;;;;;;14.13;1.97;;;;;;;23.83;nan;101004.94;6083704;23;20501;-87
2022/09/29 16:33:19;;;;;;;14.47;2.00;;;;;;;23.52;nan;101005.94;6078194;23;20411;-87
2022/09/29 16:35:53;;;;;;;17.63;2.17;;;;;;;23.26;nan;101003.03;6077566;23;20493;-87
2022/09/29 16:38:39;;;;;;;7.87;1.97;;;;;;;23.02;nan;100993.41;6125004;23;20536;-87
2022/09/29 16:41:33;;;;;;;6.50;1.70;;;;;;;22.78;nan;100992.97;6101131;23;20489;-86
2022/09/29 16:44:08;;;;;;;9.03;1.27;;;;;;;22.49;nan;100989.69;6105873;23;20893;-86
2022/09/29 16:46:56;;;;;;;8.27;1.00;;;;;;;22.40;nan;100996.84;6078186;23;20410;-87
2022/09/29 16:49:30;;;;;;;7.13;1.00;;;;;;;22.28;nan;100998.97;6125000;23;20414;-86
2022/09/29 16:52:02;;;;;;;6.07;1.07;;;;;;;22.17;nan;101000.81;6078884;23;20510;-87
2022/09/29 16:54:32;;;;;;;4.43;1.20;;;;;;;22.08;nan;100998.81;6077786;23;20422;-86
2022/09/29 16:57:17;;;;;;;8.27;1.73;;;;;;;21.96;nan;101008.09;6077084;23;20448;-86
2022/09/29 16:59:45;;;;;;;9.57;1.63;;;;;;;21.73;nan;101007.59;6100765;23;20562;-86
2022/09/29 17:02:13;;;;;;;10.07;2.00;;;;;;;21.57;nan;101009.34;6076874;23;20533;-87
2022/09/29 17:04:40;;;;;;;8.97;1.80;;;;;;;21.40;nan;101001.06;6052317;23;20409;-87
2022/09/29 17:07:15;;;;;;;13.90;1.87;;;;;;;21.30;nan;101000.97;6185305;23;20412;-87
2022/09/29 17:09:47;;;;;;;7.83;1.63;;;;;;;21.25;nan;101001.72;6190535;23;20485;-87
2022/09/29 17:12:16;;;;;;;8.63;1.90;;;;;;;21.13;nan;100992.66;6190237;23;20470;-87
2022/09/29 17:14:45;;;;;;;7.97;1.33;;;;;;;21.04;nan;100983.06;6214430;23;20403;-88
2022/09/29 17:17:41;;;;;;;14.77;1.93;;;;;;;21.03;nan;100998.06;6190727;23;20486;-89
2022/09/29 17:20:18;;;;;;;13.53;2.33;;;;;;;20.91;nan;101009.28;6214990;23;20486;-89
2022/09/29 17:22:50;;;;;;;10.90;2.03;;;;;;;20.78;nan;100998.56;6190090;23;20530;-89
2022/09/29 17:25:18;;;;;;;7.80;1.57;;;;;;;20.72;nan;101001.50;6214562;23;20407;-89
2022/09/29 17:30:34;;;;;;;13.40;2.97;;;;;;;20.65;nan;101001.66;6216503;23;20912;-88
2022/09/29 17:33:02;;;;;;;12.13;2.03;;;;;;;20.54;nan;100999.84;6190324;23;20819;-88
2022/09/29 17:35:55;;;;;;;9.73;1.70;;;;;;;20.46;nan;101003.88;6214485;23;20415;-89
2022/09/29 17:38:26;;;;;;;12.43;4.40;;;;;;;20.41;nan;101005.72;6194662;23;20451;-90
2022/09/29 17:41:02;;;;;;;22.33;5.97;;;;;;;20.40;nan;101026.25;6214069;23;20415;-89
2022/09/29 17:43:32;;;;;;;11.20;2.77;;;;;;;20.36;nan;101017.56;6216277;23;20502;-89
2022/09/29 17:46:00;;;;;;;12.93;2.37;;;;;;;20.35;nan;101019.50;6189899;23;20407;-89
2022/09/29 17:48:28;;;;;;;8.87;2.07;;;;;;;20.37;nan;101026.75;6189914;23;20558;-89
2022/09/29 17:50:58;;;;;;;16.07;2.17;;;;;;;20.35;nan;101021.44;6214596;23;20411;-89
2022/09/29 17:53:26;;;;;;;14.80;2.30;;;;;;;20.32;nan;101019.16;6190175;23;20420;-88
2022/09/29 17:55:57;;;;;;;11.40;1.53;;;;;;;20.37;nan;101022.06;6165515;23;20431;-88
2022/09/29 17:58:24;;;;;;;15.77;2.20;;;;;;;20.36;nan;101028.66;6190250;23;20446;-88
2022/09/29 18:00:53;;;;;;;9.30;1.70;;;;;;;20.33;nan;101015.28;6189999;23;20731;-89
2022/09/29 18:03:21;;;;;;;12.80;3.53;;;;;;;20.34;nan;101017.81;6189401;23;20738;-89
2022/09/29 18:05:58;;;;;;;16.17;3.83;;;;;;;20.34;nan;101022.53;6189633;23;20412;-88
2022/09/29 18:08:28;;;;;;;16.27;3.73;;;;;;;20.29;nan;101020.50;6168331;23;20408;-89
2022/09/29 18:10:57;;;;;;;15.63;4.13;;;;;;;20.28;nan;101024.34;6190055;23;20403;-88
2022/09/29 18:13:26;;;;;;;21.83;2.67;;;;;;;20.25;nan;101022.09;6213909;23;20407;-88
2022/09/29 18:15:55;;;;;;;22.43;5.43;;;;;;;20.28;nan;101020.75;6189799;23;20408;-89
2022/09/29 18:18:22;;;;;;;23.83;2.83;;;;;;;20.26;nan;101028.47;6214362;23;20522;-89
2022/09/29 18:20:50;;;;;;;16.13;2.70;;;;;;;20.25;nan;101032.34;6165490;23;20479;-89
2022/09/29 18:23:19;;;;;;;18.87;3.90;;;;;;;20.22;nan;101028.13;6165488;23;20415;-89
2022/09/29 18:25:49;;;;;;;28.00;6.47;;;;;;;20.19;nan;101031.44;6189411;23;20431;-89
2022/09/29 18:28:18;;;;;;;17.70;2.83;;;;;;;20.11;nan;101017.13;6213857;23;20478;-90
2022/09/29 18:31:07;;;;;;;16.00;3.13;;;;;;;20.19;nan;101037.00;6164666;23;20470;-89
2022/09/29 18:33:46;;;;;;;24.50;2.83;;;;;;;20.12;nan;101035.44;6206405;23;20403;-89
2022/09/29 18:36:17;;;;;;;13.17;2.90;;;;;;;20.11;nan;101034.59;6213979;23;20415;-88
2022/09/29 18:38:47;;;;;;;17.17;3.20;;;;;;;20.08;nan;101028.72;6188526;23;20489;-90
2022/09/29 18:41:18;;;;;;;17.73;4.00;;;;;;;20.07;nan;101040.91;6214149;23;20408;-89
2022/09/29 18:43:49;;;;;;;12.87;2.73;;;;;;;20.11;nan;101047.63;6165247;23;20765;-90
2022/09/29 18:46:16;;;;;;;18.67;2.73;;;;;;;19.99;nan;101043.00;6215635;23;20503;-91
2022/09/29 18:48:47;;;;;;;23.83;2.97;;;;;;;19.85;nan;101030.50;6165655;23;20518;-90
2022/09/29 18:51:16;;;;;;;16.20;3.07;;;;;;;19.89;nan;101044.72;6214273;23;20490;-91
2022/09/29 18:53:48;;;;;;;26.87;5.30;;;;;;;19.82;nan;101044.06;6190328;23;20886;-90
2022/09/29 18:56:17;;;;;;;24.43;2.93;;;;;;;19.74;nan;101042.50;6189683;23;20428;-90
2022/09/29 18:58:45;;;;;;;15.70;2.77;;;;;;;19.67;nan;101039.88;6163928;23;20446;-91
2022/09/29 19:01:15;;;;;;;27.73;2.87;;;;;;;19.62;nan;101048.09;6189452;23;20498;-90
2022/09/29 19:03:47;;;;;;;17.50;2.80;;;;;;;19.55;nan;101036.31;6190328;23;20404;-91
2022/09/29 19:06:16;;;;;;;15.00;3.43;;;;;;;19.56;nan;101053.78;6213983;23;20404;-91
2022/09/29 19:08:48;;;;;;;18.70;3.20;;;;;;;19.46;nan;101042.44;6165089;23;20502;-90
2022/09/29 19:11:22;;;;;;;13.03;2.40;;;;;;;19.46;nan;101059.06;6190424;23;20726;-91
2022/09/29 19:13:57;;;;;;;13.67;3.33;;;;;;;19.42;nan;101071.75;6191316;23;20407;-91
2022/09/29 19:16:26;;;;;;;15.47;2.37;;;;;;;19.37;nan;101060.53;6189310;23;20466;-90
2022/09/29 19:18:57;;;;;;;12.63;1.87;;;;;;;19.33;nan;101052.72;6166839;23;20526;-90
2022/09/29 19:21:25;;;;;;;20.40;3.23;;;;;;;19.31;nan;101054.03;6163748;23;20407;-90
2022/09/29 19:23:54;;;;;;;15.23;2.53;;;;;;;19.27;nan;101062.00;6188817;23;20969;-90
2022/09/29 19:26:42;;;;;;;18.33;2.17;;;;;;;19.26;nan;101053.91;6164352;23;20795;-90
2022/09/29 19:36:56;;;;;;;19.23;2.60;;;;;;;19.16;nan;101054.56;6216595;23;20363;-91
2022/09/29 19:39:27;;;;;;;12.53;2.83;;;;;;;19.10;nan;101060.22;6167052;23;20455;-90
2022/09/29 19:41:58;;;;;;;20.00;2.50;;;;;;;19.07;nan;101049.59;6166837;23;20472;-90
2022/09/29 19:48:58;;;;;;;20.47;2.60;;;;;;;19.09;nan;101076.00;6065511;23;20392;-90
2022/09/29 19:55:18;;;;;;;13.77;2.40;;;;;;;18.96;nan;101062.41;5917962;24;20440;-90
2022/09/29 20:02:45;;;;;;;15.50;2.50;;;;;;;18.98;nan;101085.16;5872329;24;20430;-91
2022/09/29 20:05:43;;;;;;;23.33;3.33;;;;;;;18.94;nan;101083.94;5926536;24;20427;-91
2022/09/29 20:08:14;;;;;;;10.97;2.57;;;;;;;18.80;nan;101074.22;5926860;24;20420;-91
2022/09/29 20:10:42;;;;;;;22.70;3.63;;;;;;;18.84;nan;101079.03;5904533;24;20984;-91
2022/09/29 20:13:13;;;;;;;13.03;2.20;;;;;;;18.83;nan;101088.41;5904304;24;20503;-90
2022/09/29 20:15:44;;;;;;;15.40;2.90;;;;;;;18.78;nan;101079.97;5905080;24;20499;-89
2022/09/29 20:18:24;;;;;;;16.17;2.60;;;;;;;18.83;nan;101096.72;5906954;24;20504;-91
2022/09/29 20:20:52;;;;;;;14.23;2.97;;;;;;;18.73;nan;101084.53;5904337;24;20416;-91
2022/09/29 20:23:23;;;;;;;14.53;3.10;;;;;;;18.81;nan;101106.34;5908144;24;20427;-91
2022/09/29 20:45:31;;;;;;;29.03;4.40;;;;;;;18.70;nan;101115.47;6125250;23;20383;-90
2022/09/29 21:08:10;;;;;;;22.17;3.00;;;;;;;18.53;nan;101116.13;6185360;23;21166;-92
2022/09/29 22:15:19;;;;;;;17.10;2.20;;;;;;;18.13;nan;101153.78;6181262;23;20940;-90
2022/09/29 22:22:26;;;;;;;20.10;3.47;;;;;;;18.09;nan;101150.63;6124432;23;20377;-90
2022/09/29 22:29:16;;;;;;;21.67;3.40;;;;;;;18.04;nan;101144.97;6009810;23;20466;-89
2022/09/29 22:50:35;;;;;;;16.13;3.40;;;;;;;17.78;nan;101135.09;6009581;23;20778;-90
2022/09/29 22:53:34;;;;;;;16.73;4.03;;;;;;;17.85;nan;101137.78;5986831;23;20430;-90
2022/09/29 22:56:58;;;;;;;23.03;3.80;;;;;;;17.86;nan;101143.09;6007027;23;20421;-89
2022/09/29 22:59:26;;;;;;;14.60;2.40;;;;;;;17.67;nan;101116.53;6123763;23;20446;-92
2022/09/29 23:01:55;;;;;;;20.70;3.97;;;;;;;17.76;nan;101147.44;6078099;23;20403;-92
2022/09/29 23:04:31;;;;;;;21.43;3.90;;;;;;;17.79;nan;101152.53;6190346;23;20483;-92
2022/09/29 23:07:03;;;;;;;18.83;2.90;;;;;;;17.77;nan;101154.66;6166047;23;20473;-91
2022/09/29 23:09:32;;;;;;;24.23;3.63;;;;;;;17.73;nan;101148.75;6214552;23;20408;-91
2022/09/29 23:12:10;;;;;;;18.27;3.53;;;;;;;17.74;nan;101166.19;6191122;23;20745;-91
2022/09/29 23:14:40;;;;;;;20.27;3.67;;;;;;;17.72;nan;101169.19;6169087;23;20400;-91
2022/09/29 23:17:13;;;;;;;21.20;4.60;;;;;;;17.72;nan;101157.28;6190870;23;20502;-93
2022/09/29 23:19:41;;;;;;;19.27;2.73;;;;;;;17.69;nan;101150.31;6192032;23;20436;-92
2022/09/29 23:22:09;;;;;;;15.60;3.50;;;;;;;17.71;nan;101173.03;6167338;23;20884;-92
2022/09/29 23:24:41;;;;;;;12.73;2.70;;;;;;;17.65;nan;101160.13;6167615;23;20929;-91
2022/09/29 23:27:08;;;;;;;22.63;3.30;;;;;;;17.60;nan;101148.88;6191930;23;20411;-91
2022/09/29 23:29:36;;;;;;;17.17;2.90;;;;;;;17.63;nan;101153.13;6167203;23;20422;-91
2022/09/29 23:43:06;;;;;;;20.23;2.97;;;;;;;17.55;nan;101170.84;6218295;23;20886;-91
2022/09/29 23:45:35;;;;;;;20.60;3.70;;;;;;;17.52;nan;101165.75;6192044;23;20411;-92
2022/09/29 23:48:03;;;;;;;17.27;2.67;;;;;;;17.56;nan;101170.63;6166701;23;20411;-91
2022/09/29 23:50:32;;;;;;;18.33;2.73;;;;;;;17.50;nan;101170.69;6167315;23;20418;-92
2022/09/29 23:52:59;;;;;;;21.93;2.47;;;;;;;17.50;nan;101163.25;6167330;23;20419;-91
2022/09/29 23:55:27;;;;;;;20.73;2.80;;;;;;;17.48;nan;101165.41;6191104;23;20408;-91
